FALC14 YAMB-YWLM
Flight info
| Callsign | FALC14 |
|---|---|
| Flight time | 2h 7m |
| Altitude | 32000 |
| Route | AMB DCT COWIE DCT 274036S1532011E 274747S1532530E 280757S1534459E DCT SEMAJ DCT AM116 DCT WM300 DCT IFFEY DCT IDAGO DCT ASUVA |
| Aircraft | F18/M-SDGHITUY/LB1 |
Departure
| Time | 2026-04-28 08:24 |
|---|---|
| Airport | RAAF Base Amberley (YAMB) |
Arrival
| Time | 2026-04-28 10:32 |
|---|---|
| Airport | Newcastle Airport (YWLM) |
| Time | Latitude | Longitude | Altitude | Speed | Heading |
|---|---|---|---|---|---|
| 2026-04-28 08:13 | -27.63252 | 152.70661 | 98 ft | 0 kts | 8° |
| 2026-04-28 08:19 | -27.63242 | 152.70662 | 98 ft | 6 kts | 5° |
| 2026-04-28 08:19 | -27.63200 | 152.70686 | 97 ft | 7 kts | 17° |
| 2026-04-28 08:19 | -27.63168 | 152.70716 | 98 ft | 7 kts | 61° |
| 2026-04-28 08:20 | -27.63119 | 152.70728 | 97 ft | 10 kts | 339° |
| 2026-04-28 08:20 | -27.63056 | 152.70699 | 97 ft | 12 kts | 338° |
| 2026-04-28 08:20 | -27.62972 | 152.70664 | 98 ft | 13 kts | 339° |
| 2026-04-28 08:20 | -27.62880 | 152.70624 | 98 ft | 14 kts | 339° |
| 2026-04-28 08:21 | -27.62790 | 152.70580 | 97 ft | 14 kts | 337° |
| 2026-04-28 08:21 | -27.62703 | 152.70542 | 98 ft | 14 kts | 339° |
| 2026-04-28 08:21 | -27.62596 | 152.70497 | 97 ft | 17 kts | 339° |
| 2026-04-28 08:21 | -27.62485 | 152.70447 | 94 ft | 17 kts | 338° |
| 2026-04-28 08:22 | -27.62381 | 152.70399 | 95 ft | 15 kts | 341° |
| 2026-04-28 08:22 | -27.62289 | 152.70367 | 95 ft | 13 kts | 352° |
| 2026-04-28 08:22 | -27.62224 | 152.70400 | 97 ft | 9 kts | 53° |
| 2026-04-28 08:22 | -27.62198 | 152.70470 | 99 ft | 11 kts | 71° |
| 2026-04-28 08:23 | -27.62211 | 152.70543 | 99 ft | 12 kts | 144° |
| 2026-04-28 08:23 | -27.62283 | 152.70577 | 98 ft | 9 kts | 158° |
| 2026-04-28 08:23 | -27.62285 | 152.70578 | 98 ft | 0 kts | 158° |
| 2026-04-28 08:23 | -27.62323 | 152.70595 | 98 ft | 48 kts | 157° |
| 2026-04-28 08:24 | -27.63317 | 152.71011 | 270 ft | 249 kts | 160° |
| 2026-04-28 08:24 | -27.65510 | 152.71931 | 1515 ft | 418 kts | 160° |
| 2026-04-28 08:24 | -27.68352 | 152.73122 | 3083 ft | 419 kts | 159° |
| 2026-04-28 08:24 | -27.70990 | 152.74117 | 3937 ft | 392 kts | 171° |
| 2026-04-28 08:25 | -27.73550 | 152.73513 | 4975 ft | 377 kts | 208° |
| 2026-04-28 08:25 | -27.75277 | 152.71326 | 5591 ft | 381 kts | 243° |
| 2026-04-28 08:25 | -27.75614 | 152.68373 | 6099 ft | 391 kts | 278° |
| 2026-04-28 08:26 | -27.72234 | 152.63911 | 8295 ft | 386 kts | 341° |
| 2026-04-28 08:26 | -27.69614 | 152.63614 | 9395 ft | 380 kts | 9° |
| 2026-04-28 08:26 | -27.67175 | 152.64537 | 10580 ft | 368 kts | 31° |
| 2026-04-28 08:26 | -27.65210 | 152.66284 | 11869 ft | 354 kts | 49° |
| 2026-04-28 08:27 | -27.63838 | 152.68594 | 12863 ft | 356 kts | 66° |
| 2026-04-28 08:27 | -27.62988 | 152.71274 | 13432 ft | 367 kts | 76° |
| 2026-04-28 08:27 | -27.62545 | 152.74095 | 14132 ft | 370 kts | 88° |
| 2026-04-28 08:27 | -27.62793 | 152.76939 | 15262 ft | 355 kts | 104° |
| 2026-04-28 08:28 | -27.63373 | 152.79584 | 16385 ft | 348 kts | 109° |
| 2026-04-28 08:28 | -27.64172 | 152.82154 | 17454 ft | 343 kts | 110° |
| 2026-04-28 08:28 | -27.64970 | 152.84812 | 18517 ft | 381 kts | 109° |
| 2026-04-28 08:28 | -27.65764 | 152.87809 | 19053 ft | 420 kts | 105° |
| 2026-04-28 08:29 | -27.66368 | 152.91198 | 19294 ft | 462 kts | 100° |
| 2026-04-28 08:29 | -27.66644 | 152.94948 | 19280 ft | 504 kts | 92° |
| 2026-04-28 08:29 | -27.66648 | 152.99051 | 19341 ft | 536 kts | 91° |
| 2026-04-28 08:29 | -27.66584 | 153.03334 | 19698 ft | 554 kts | 90° |
| 2026-04-28 08:30 | -27.66470 | 153.07768 | 19517 ft | 574 kts | 89° |
| 2026-04-28 08:30 | -27.66276 | 153.12313 | 19260 ft | 585 kts | 88° |
| 2026-04-28 08:30 | -27.66075 | 153.16845 | 19279 ft | 586 kts | 89° |
| 2026-04-28 08:30 | -27.65915 | 153.21428 | 19532 ft | 583 kts | 89° |
| 2026-04-28 08:31 | -27.65760 | 153.26005 | 19513 ft | 586 kts | 89° |
| 2026-04-28 08:31 | -27.65635 | 153.30616 | 19232 ft | 588 kts | 90° |
| 2026-04-28 08:31 | -27.66026 | 153.35181 | 19834 ft | 590 kts | 111° |
| 2026-04-28 08:31 | -27.68493 | 153.38525 | 20414 ft | 540 kts | 139° |
| 2026-04-28 08:32 | -27.71266 | 153.41220 | 20331 ft | 515 kts | 140° |
| 2026-04-28 08:32 | -27.73928 | 153.43797 | 20453 ft | 490 kts | 140° |
| 2026-04-28 08:32 | -27.76409 | 153.46134 | 21925 ft | 446 kts | 142° |
| 2026-04-28 08:32 | -27.78751 | 153.48267 | 23050 ft | 420 kts | 142° |
| 2026-04-28 08:33 | -27.80970 | 153.50305 | 23963 ft | 404 kts | 142° |
| 2026-04-28 08:33 | -27.83143 | 153.52265 | 24532 ft | 395 kts | 143° |
| 2026-04-28 08:33 | -27.85286 | 153.54173 | 25091 ft | 389 kts | 143° |
| 2026-04-28 08:33 | -27.87148 | 153.55876 | 25564 ft | 384 kts | 142° |
| 2026-04-28 08:34 | -27.89213 | 153.57785 | 26064 ft | 382 kts | 143° |
| 2026-04-28 08:34 | -27.91249 | 153.59669 | 26379 ft | 384 kts | 142° |
| 2026-04-28 08:34 | -27.93314 | 153.61594 | 26820 ft | 383 kts | 142° |
| 2026-04-28 08:34 | -27.95371 | 153.63500 | 27297 ft | 382 kts | 143° |
| 2026-04-28 08:35 | -27.97432 | 153.65413 | 27601 ft | 386 kts | 143° |
| 2026-04-28 08:35 | -27.99541 | 153.67380 | 27516 ft | 399 kts | 142° |
| 2026-04-28 08:35 | -28.01701 | 153.69399 | 27521 ft | 407 kts | 143° |
| 2026-04-28 08:35 | -28.03916 | 153.71441 | 27475 ft | 416 kts | 143° |
| 2026-04-28 08:36 | -28.06175 | 153.73536 | 27497 ft | 421 kts | 142° |
| 2026-04-28 08:36 | -28.08417 | 153.75671 | 27736 ft | 420 kts | 141° |
| 2026-04-28 08:36 | -28.10596 | 153.77842 | 28122 ft | 416 kts | 140° |
| 2026-04-28 08:36 | -28.12697 | 153.80079 | 28449 ft | 414 kts | 137° |
| 2026-04-28 08:37 | -28.14716 | 153.82419 | 28582 ft | 417 kts | 135° |
| 2026-04-28 08:37 | -28.19041 | 153.86791 | 28517 ft | 423 kts | 159° |
| 2026-04-28 08:37 | -28.21923 | 153.87368 | 28506 ft | 423 kts | 181° |
| 2026-04-28 08:38 | -28.24862 | 153.87276 | 28554 ft | 425 kts | 183° |
| 2026-04-28 08:38 | -28.30756 | 153.87073 | 28850 ft | 423 kts | 183° |
| 2026-04-28 08:38 | -28.33643 | 153.86558 | 28832 ft | 425 kts | 199° |
| 2026-04-28 08:39 | -28.36310 | 153.84992 | 28307 ft | 437 kts | 215° |
| 2026-04-28 08:39 | -28.38673 | 153.82849 | 28573 ft | 431 kts | 223° |
| 2026-04-28 08:39 | -28.40744 | 153.80461 | 29160 ft | 419 kts | 226° |
| 2026-04-28 08:39 | -28.42766 | 153.78097 | 29439 ft | 416 kts | 226° |
| 2026-04-28 08:40 | -28.44808 | 153.75757 | 29524 ft | 418 kts | 225° |
| 2026-04-28 08:40 | -28.47059 | 153.73690 | 29708 ft | 415 kts | 209° |
| 2026-04-28 08:40 | -28.49836 | 153.72724 | 29270 ft | 427 kts | 187° |
| 2026-04-28 08:40 | -28.52798 | 153.73042 | 28981 ft | 433 kts | 165° |
| 2026-04-28 08:41 | -28.55502 | 153.74522 | 29020 ft | 432 kts | 149° |
| 2026-04-28 08:41 | -28.58042 | 153.76290 | 29322 ft | 426 kts | 150° |
| 2026-04-28 08:41 | -28.60589 | 153.78068 | 29182 ft | 431 kts | 149° |
| 2026-04-28 08:41 | -28.63131 | 153.79908 | 29017 ft | 436 kts | 148° |
| 2026-04-28 08:42 | -28.65650 | 153.81859 | 28993 ft | 436 kts | 146° |
| 2026-04-28 08:42 | -28.68098 | 153.83877 | 29138 ft | 433 kts | 145° |
| 2026-04-28 08:42 | -28.70656 | 153.85585 | 29590 ft | 422 kts | 157° |
| 2026-04-28 08:42 | -28.73354 | 153.86899 | 29764 ft | 421 kts | 158° |
| 2026-04-28 08:43 | -28.76126 | 153.87930 | 29812 ft | 421 kts | 175° |
| 2026-04-28 08:43 | -28.79064 | 153.87556 | 29875 ft | 451 kts | 194° |
| 2026-04-28 08:43 | -28.82303 | 153.86594 | 29970 ft | 499 kts | 195° |
| 2026-04-28 08:43 | -28.85820 | 153.85592 | 30095 ft | 557 kts | 194° |
| 2026-04-28 08:44 | -28.89619 | 153.84612 | 30635 ft | 560 kts | 193° |
| 2026-04-28 08:44 | -28.93432 | 153.83609 | 31066 ft | 563 kts | 194° |
| 2026-04-28 08:44 | -28.97259 | 153.82536 | 31347 ft | 568 kts | 194° |
| 2026-04-28 08:44 | -29.01134 | 153.81491 | 31536 ft | 573 kts | 194° |
| 2026-04-28 08:45 | -29.05030 | 153.80486 | 31734 ft | 577 kts | 194° |
| 2026-04-28 08:45 | -29.08950 | 153.79456 | 32011 ft | 578 kts | 194° |
| 2026-04-28 08:45 | -29.12861 | 153.78372 | 32228 ft | 580 kts | 195° |
| 2026-04-28 08:46 | -29.20683 | 153.75976 | 32021 ft | 590 kts | 197° |
| 2026-04-28 08:46 | -29.28645 | 153.73619 | 32089 ft | 590 kts | 194° |
| 2026-04-28 08:46 | -29.32638 | 153.72601 | 31967 ft | 585 kts | 194° |
| 2026-04-28 08:47 | -29.36605 | 153.71564 | 31609 ft | 584 kts | 194° |
| 2026-04-28 08:47 | -29.40565 | 153.70505 | 31387 ft | 581 kts | 194° |
| 2026-04-28 08:47 | -29.44471 | 153.69442 | 31402 ft | 575 kts | 195° |
| 2026-04-28 08:48 | -29.50905 | 153.67614 | 31382 ft | 571 kts | 196° |
| 2026-04-28 08:48 | -29.58513 | 153.65025 | 31238 ft | 570 kts | 200° |
| 2026-04-28 08:48 | -29.62228 | 153.63434 | 31111 ft | 571 kts | 203° |
| 2026-04-28 08:49 | -29.65860 | 153.61573 | 31029 ft | 570 kts | 207° |
| 2026-04-28 08:49 | -29.72798 | 153.57215 | 31018 ft | 566 kts | 205° |
| 2026-04-28 08:49 | -29.76563 | 153.55897 | 30957 ft | 567 kts | 192° |
| 2026-04-28 08:50 | -29.80449 | 153.55093 | 30989 ft | 566 kts | 191° |
| 2026-04-28 08:50 | -29.88140 | 153.53440 | 30979 ft | 567 kts | 193° |
| 2026-04-28 08:51 | -29.95814 | 153.51326 | 30929 ft | 566 kts | 197° |
| 2026-04-28 08:51 | -30.03257 | 153.48342 | 30972 ft | 565 kts | 204° |
| 2026-04-28 08:52 | -30.10341 | 153.44906 | 30986 ft | 565 kts | 201° |
| 2026-04-28 08:52 | -30.17964 | 153.42533 | 30798 ft | 568 kts | 193° |
| 2026-04-28 08:53 | -30.25797 | 153.41160 | 30556 ft | 571 kts | 188° |
| 2026-04-28 08:53 | -30.33699 | 153.40332 | 30458 ft | 568 kts | 185° |
| 2026-04-28 08:54 | -30.41539 | 153.40029 | 30522 ft | 566 kts | 183° |
| 2026-04-28 08:54 | -30.49400 | 153.39584 | 30523 ft | 566 kts | 186° |
| 2026-04-28 08:55 | -30.57248 | 153.38750 | 30495 ft | 566 kts | 186° |
| 2026-04-28 08:55 | -30.65080 | 153.38994 | 30325 ft | 569 kts | 168° |
| 2026-04-28 08:55 | -30.68775 | 153.40656 | 30051 ft | 573 kts | 154° |
| 2026-04-28 08:56 | -30.72087 | 153.43231 | 30062 ft | 570 kts | 146° |
| 2026-04-28 08:56 | -30.75314 | 153.45891 | 30326 ft | 566 kts | 147° |
| 2026-04-28 08:56 | -30.78585 | 153.48452 | 30223 ft | 568 kts | 148° |
| 2026-04-28 08:56 | -30.81960 | 153.50899 | 29851 ft | 573 kts | 151° |
| 2026-04-28 08:57 | -30.85388 | 153.53269 | 29675 ft | 573 kts | 150° |
| 2026-04-28 08:57 | -30.92204 | 153.58015 | 29743 ft | 568 kts | 151° |
| 2026-04-28 08:58 | -30.98923 | 153.62710 | 29857 ft | 566 kts | 150° |
| 2026-04-28 08:58 | -31.05587 | 153.67636 | 29750 ft | 568 kts | 148° |
| 2026-04-28 08:59 | -31.12282 | 153.72540 | 29695 ft | 567 kts | 151° |
| 2026-04-28 08:59 | -31.19161 | 153.77006 | 29810 ft | 565 kts | 152° |
| 2026-04-28 09:00 | -31.25948 | 153.81661 | 29822 ft | 565 kts | 151° |
| 2026-04-28 09:00 | -31.32725 | 153.86360 | 29864 ft | 566 kts | 150° |
| 2026-04-28 09:01 | -31.39178 | 153.91557 | 29710 ft | 568 kts | 145° |
| 2026-04-28 09:01 | -31.45639 | 153.96839 | 29902 ft | 563 kts | 148° |
| 2026-04-28 09:02 | -31.52376 | 154.01530 | 29976 ft | 564 kts | 154° |
| 2026-04-28 09:02 | -31.59357 | 154.05734 | 29903 ft | 565 kts | 154° |
| 2026-04-28 09:03 | -31.66332 | 154.09984 | 29977 ft | 564 kts | 154° |
| 2026-04-28 09:03 | -31.73275 | 154.14266 | 30044 ft | 563 kts | 154° |
| 2026-04-28 09:04 | -31.80317 | 154.18327 | 30228 ft | 561 kts | 154° |
| 2026-04-28 09:04 | -31.83713 | 154.20409 | 30604 ft | 556 kts | 153° |
| 2026-04-28 09:04 | -31.87154 | 154.22508 | 30916 ft | 555 kts | 154° |
| 2026-04-28 09:04 | -31.90599 | 154.24574 | 31140 ft | 556 kts | 154° |
| 2026-04-28 09:05 | -31.94007 | 154.26706 | 31500 ft | 555 kts | 153° |
| 2026-04-28 09:05 | -31.97414 | 154.28853 | 31843 ft | 555 kts | 154° |
| 2026-04-28 09:05 | -32.00862 | 154.30973 | 32061 ft | 558 kts | 154° |
| 2026-04-28 09:05 | -32.04493 | 154.32508 | 32281 ft | 557 kts | 170° |
| 2026-04-28 09:06 | -32.08361 | 154.32669 | 32407 ft | 558 kts | 188° |
| 2026-04-28 09:06 | -32.12117 | 154.31571 | 32550 ft | 559 kts | 198° |
| 2026-04-28 09:06 | -32.15855 | 154.30220 | 32613 ft | 562 kts | 199° |
| 2026-04-28 09:07 | -32.23288 | 154.27247 | 32764 ft | 565 kts | 202° |
| 2026-04-28 09:07 | -32.30607 | 154.23952 | 32648 ft | 571 kts | 202° |
| 2026-04-28 09:07 | -32.34312 | 154.22215 | 32484 ft | 573 kts | 203° |
| 2026-04-28 09:08 | -32.37983 | 154.20371 | 32477 ft | 572 kts | 205° |
| 2026-04-28 09:08 | -32.41567 | 154.18384 | 32607 ft | 569 kts | 207° |
| 2026-04-28 09:08 | -32.45060 | 154.16199 | 32744 ft | 567 kts | 210° |
| 2026-04-28 09:09 | -32.52004 | 154.11714 | 32763 ft | 570 kts | 208° |
| 2026-04-28 09:09 | -32.55614 | 154.09736 | 32653 ft | 572 kts | 204° |
| 2026-04-28 09:09 | -32.59352 | 154.08112 | 32545 ft | 574 kts | 198° |
| 2026-04-28 09:09 | -32.63237 | 154.06984 | 32437 ft | 574 kts | 191° |
| 2026-04-28 09:10 | -32.67207 | 154.06500 | 32317 ft | 575 kts | 183° |
| 2026-04-28 09:10 | -32.71204 | 154.06631 | 32197 ft | 575 kts | 180° |
| 2026-04-28 09:10 | -32.75171 | 154.06356 | 32535 ft | 567 kts | 187° |
| 2026-04-28 09:10 | -32.79038 | 154.05609 | 33190 ft | 558 kts | 192° |
| 2026-04-28 09:11 | -32.82815 | 154.04624 | 33736 ft | 555 kts | 193° |
| 2026-04-28 09:11 | -32.86585 | 154.03647 | 34116 ft | 555 kts | 193° |
| 2026-04-28 09:11 | -32.90364 | 154.02684 | 34410 ft | 556 kts | 193° |
| 2026-04-28 09:12 | -32.97959 | 154.00630 | 34525 ft | 563 kts | 195° |
| 2026-04-28 09:12 | -33.05502 | 153.98051 | 34707 ft | 563 kts | 198° |
| 2026-04-28 09:12 | -33.09224 | 153.96581 | 34860 ft | 563 kts | 199° |
| 2026-04-28 09:13 | -33.12967 | 153.95152 | 35030 ft | 565 kts | 198° |
| 2026-04-28 09:13 | -33.16708 | 153.93722 | 35231 ft | 566 kts | 198° |
| 2026-04-28 09:13 | -33.20443 | 153.92227 | 35459 ft | 567 kts | 199° |
| 2026-04-28 09:13 | -33.24148 | 153.90618 | 35668 ft | 567 kts | 200° |
| 2026-04-28 09:14 | -33.27875 | 153.89022 | 35834 ft | 568 kts | 199° |
| 2026-04-28 09:14 | -33.31656 | 153.87618 | 35941 ft | 569 kts | 195° |
| 2026-04-28 09:14 | -33.35446 | 153.86548 | 35974 ft | 570 kts | 191° |
| 2026-04-28 09:14 | -33.39523 | 153.85889 | 36072 ft | 623 kts | 185° |
| 2026-04-28 09:15 | -33.44043 | 153.85912 | 37794 ft | 673 kts | 175° |
| 2026-04-28 09:15 | -33.48643 | 153.87000 | 42598 ft | 665 kts | 164° |
| 2026-04-28 09:15 | -33.52851 | 153.89138 | 48776 ft | 655 kts | 154° |
| 2026-04-28 09:15 | -33.56740 | 153.92106 | 52438 ft | 677 kts | 146° |
| 2026-04-28 09:16 | -33.60423 | 153.95916 | 52269 ft | 732 kts | 137° |
| 2026-04-28 09:16 | -33.63726 | 154.01027 | 48646 ft | 818 kts | 118° |
| 2026-04-28 09:16 | -33.64590 | 154.07557 | 45516 ft | 790 kts | 84° |
| 2026-04-28 09:16 | -33.62309 | 154.13283 | 43800 ft | 748 kts | 50° |
| 2026-04-28 09:17 | -33.58096 | 154.16434 | 43607 ft | 698 kts | 19° |
| 2026-04-28 09:17 | -33.53473 | 154.17287 | 43378 ft | 655 kts | 1° |
| 2026-04-28 09:17 | -33.49110 | 154.16412 | 43088 ft | 622 kts | 342° |
| 2026-04-28 09:17 | -33.45118 | 154.14720 | 43120 ft | 595 kts | 341° |
| 2026-04-28 09:18 | -33.41329 | 154.13065 | 42925 ft | 579 kts | 340° |
| 2026-04-28 09:18 | -33.37589 | 154.11414 | 42711 ft | 568 kts | 340° |
| 2026-04-28 09:18 | -33.33878 | 154.09852 | 42318 ft | 562 kts | 342° |
| 2026-04-28 09:18 | -33.30158 | 154.08456 | 41719 ft | 562 kts | 345° |
| 2026-04-28 09:19 | -33.26358 | 154.07289 | 41065 ft | 564 kts | 348° |
| 2026-04-28 09:19 | -33.22494 | 154.06451 | 40536 ft | 563 kts | 353° |
| 2026-04-28 09:19 | -33.18607 | 154.06034 | 40214 ft | 559 kts | 359° |
| 2026-04-28 09:19 | -33.14733 | 154.05833 | 40101 ft | 553 kts | 358° |
| 2026-04-28 09:20 | -33.10931 | 154.05466 | 40122 ft | 546 kts | 355° |
| 2026-04-28 09:20 | -33.03482 | 154.03965 | 39940 ft | 542 kts | 348° |
| 2026-04-28 09:20 | -32.99782 | 154.03008 | 39744 ft | 542 kts | 349° |
| 2026-04-28 09:21 | -32.96087 | 154.02132 | 39551 ft | 543 kts | 351° |
| 2026-04-28 09:21 | -32.92358 | 154.01417 | 39384 ft | 543 kts | 353° |
| 2026-04-28 09:21 | -32.88605 | 154.00921 | 39265 ft | 541 kts | 357° |
| 2026-04-28 09:21 | -32.84842 | 154.01016 | 38983 ft | 543 kts | 7° |
| 2026-04-28 09:22 | -32.81132 | 154.01500 | 38745 ft | 543 kts | 8° |
| 2026-04-28 09:22 | -32.77377 | 154.01890 | 38890 ft | 537 kts | 6° |
| 2026-04-28 09:22 | -32.73672 | 154.02093 | 39153 ft | 529 kts | 3° |
| 2026-04-28 09:23 | -32.66370 | 154.01785 | 39138 ft | 529 kts | 358° |
| 2026-04-28 09:23 | -32.62692 | 154.01445 | 38929 ft | 532 kts | 356° |
| 2026-04-28 09:23 | -32.59022 | 154.01098 | 38987 ft | 510 kts | 358° |
| 2026-04-28 09:23 | -32.55674 | 154.00952 | 39014 ft | 467 kts | 359° |
| 2026-04-28 09:24 | -32.52472 | 154.00776 | 39030 ft | 454 kts | 359° |
| 2026-04-28 09:24 | -32.46117 | 154.00432 | 39016 ft | 470 kts | 359° |
| 2026-04-28 09:24 | -32.42798 | 154.00261 | 39032 ft | 482 kts | 359° |
| 2026-04-28 09:25 | -32.39472 | 154.00085 | 39033 ft | 472 kts | 359° |
| 2026-04-28 09:25 | -32.36234 | 153.99910 | 39033 ft | 460 kts | 359° |
| 2026-04-28 09:25 | -32.33025 | 153.99731 | 39023 ft | 463 kts | 359° |
| 2026-04-28 09:26 | -32.26557 | 153.99388 | 39046 ft | 461 kts | 359° |
| 2026-04-28 09:26 | -32.20186 | 153.99046 | 39052 ft | 461 kts | 359° |
| 2026-04-28 09:27 | -32.10588 | 153.98530 | 39046 ft | 458 kts | 359° |
| 2026-04-28 09:27 | -32.04221 | 153.98188 | 39044 ft | 458 kts | 358° |
| 2026-04-28 09:28 | -31.97849 | 153.97846 | 39044 ft | 459 kts | 358° |
| 2026-04-28 09:28 | -31.91480 | 153.97503 | 39039 ft | 457 kts | 358° |
| 2026-04-28 09:29 | -31.85129 | 153.97163 | 39038 ft | 457 kts | 358° |
| 2026-04-28 09:29 | -31.78788 | 153.96822 | 39038 ft | 457 kts | 358° |
| 2026-04-28 09:30 | -31.72469 | 153.96469 | 39035 ft | 452 kts | 358° |
| 2026-04-28 09:30 | -31.69319 | 153.96223 | 38430 ft | 458 kts | 357° |
| 2026-04-28 09:30 | -31.66094 | 153.95857 | 37420 ft | 472 kts | 352° |
| 2026-04-28 09:31 | -31.62937 | 153.94855 | 36252 ft | 484 kts | 337° |
| 2026-04-28 09:31 | -31.60099 | 153.92655 | 35201 ft | 492 kts | 321° |
| 2026-04-28 09:31 | -31.57680 | 153.89980 | 35545 ft | 466 kts | 308° |
| 2026-04-28 09:31 | -31.56392 | 153.86634 | 35578 ft | 446 kts | 275° |
| 2026-04-28 09:32 | -31.57087 | 153.83231 | 35624 ft | 429 kts | 240° |
| 2026-04-28 09:32 | -31.59187 | 153.80817 | 35227 ft | 430 kts | 211° |
| 2026-04-28 09:32 | -31.61992 | 153.79567 | 34991 ft | 429 kts | 200° |
| 2026-04-28 09:32 | -31.64804 | 153.78483 | 34961 ft | 424 kts | 200° |
| 2026-04-28 09:33 | -31.67612 | 153.77387 | 34759 ft | 425 kts | 200° |
| 2026-04-28 09:33 | -31.70428 | 153.76300 | 34538 ft | 426 kts | 200° |
| 2026-04-28 09:33 | -31.73244 | 153.75256 | 34421 ft | 424 kts | 199° |
| 2026-04-28 09:33 | -31.76060 | 153.74265 | 34348 ft | 421 kts | 198° |
| 2026-04-28 09:34 | -31.78877 | 153.73334 | 34243 ft | 420 kts | 197° |
| 2026-04-28 09:34 | -31.81706 | 153.72470 | 34093 ft | 419 kts | 196° |
| 2026-04-28 09:34 | -31.84548 | 153.71680 | 33918 ft | 420 kts | 194° |
| 2026-04-28 09:34 | -31.87411 | 153.70972 | 33757 ft | 420 kts | 193° |
| 2026-04-28 09:35 | -31.90282 | 153.70361 | 33639 ft | 419 kts | 191° |
| 2026-04-28 09:35 | -31.93160 | 153.69856 | 33541 ft | 418 kts | 189° |
| 2026-04-28 09:35 | -31.98770 | 153.68606 | 33491 ft | 405 kts | 216° |
| 2026-04-28 09:36 | -32.00130 | 153.65858 | 33627 ft | 396 kts | 263° |
| 2026-04-28 09:36 | -31.99859 | 153.63749 | 33629 ft | 396 kts | 289° |
| 2026-04-28 09:36 | -31.98829 | 153.60744 | 33461 ft | 397 kts | 292° |
| 2026-04-28 09:36 | -31.98098 | 153.57602 | 32993 ft | 401 kts | 278° |
| 2026-04-28 09:37 | -31.97759 | 153.54305 | 32613 ft | 413 kts | 277° |
| 2026-04-28 09:37 | -31.97414 | 153.50907 | 32484 ft | 421 kts | 275° |
| 2026-04-28 09:37 | -31.97411 | 153.47426 | 32545 ft | 432 kts | 266° |
| 2026-04-28 09:37 | -31.97657 | 153.43852 | 32851 ft | 441 kts | 265° |
| 2026-04-28 09:38 | -31.97946 | 153.40203 | 33191 ft | 466 kts | 264° |
| 2026-04-28 09:38 | -31.98280 | 153.36269 | 33493 ft | 488 kts | 264° |
| 2026-04-28 09:38 | -31.98686 | 153.32317 | 34057 ft | 486 kts | 261° |
| 2026-04-28 09:38 | -31.99423 | 153.28475 | 34315 ft | 489 kts | 253° |
| 2026-04-28 09:39 | -32.00635 | 153.24715 | 34462 ft | 493 kts | 246° |
| 2026-04-28 09:39 | -32.02120 | 153.21036 | 34418 ft | 502 kts | 242° |
| 2026-04-28 09:39 | -32.03872 | 153.17421 | 34328 ft | 516 kts | 237° |
| 2026-04-28 09:39 | -32.05895 | 153.13748 | 34464 ft | 559 kts | 236° |
| 2026-04-28 09:40 | -32.07838 | 153.09778 | 35145 ft | 551 kts | 242° |
| 2026-04-28 09:40 | -32.09376 | 153.05724 | 35842 ft | 532 kts | 246° |
| 2026-04-28 09:40 | -32.10632 | 153.01622 | 35969 ft | 531 kts | 250° |
| 2026-04-28 09:40 | -32.11762 | 152.97464 | 35954 ft | 533 kts | 250° |
| 2026-04-28 09:41 | -32.14009 | 152.89100 | 35882 ft | 535 kts | 249° |
| 2026-04-28 09:41 | -32.16513 | 152.80889 | 35922 ft | 534 kts | 247° |
| 2026-04-28 09:42 | -32.19305 | 152.72747 | 36043 ft | 530 kts | 243° |
| 2026-04-28 09:42 | -32.22175 | 152.64755 | 35904 ft | 538 kts | 250° |
| 2026-04-28 09:43 | -32.23106 | 152.60454 | 35786 ft | 543 kts | 255° |
| 2026-04-28 09:43 | -32.23731 | 152.56047 | 35797 ft | 545 kts | 259° |
| 2026-04-28 09:43 | -32.24131 | 152.51595 | 35921 ft | 541 kts | 262° |
| 2026-04-28 09:43 | -32.24571 | 152.47248 | 36006 ft | 522 kts | 253° |
| 2026-04-28 09:44 | -32.26276 | 152.43641 | 35700 ft | 498 kts | 223° |
| 2026-04-28 09:44 | -32.29213 | 152.41668 | 35158 ft | 486 kts | 194° |
| 2026-04-28 09:44 | -32.32522 | 152.41322 | 35030 ft | 475 kts | 173° |
| 2026-04-28 09:44 | -32.35556 | 152.42783 | 34686 ft | 477 kts | 147° |
| 2026-04-28 09:45 | -32.37681 | 152.45756 | 34121 ft | 492 kts | 122° |
| 2026-04-28 09:45 | -32.38842 | 152.49585 | 33973 ft | 492 kts | 113° |
| 2026-04-28 09:45 | -32.39917 | 152.53386 | 34252 ft | 481 kts | 113° |
| 2026-04-28 09:45 | -32.40926 | 152.57129 | 34411 ft | 475 kts | 112° |
| 2026-04-28 09:46 | -32.41835 | 152.60893 | 34266 ft | 477 kts | 110° |
| 2026-04-28 09:46 | -32.42604 | 152.64747 | 33812 ft | 486 kts | 107° |
| 2026-04-28 09:46 | -32.43243 | 152.68707 | 33307 ft | 493 kts | 105° |
| 2026-04-28 09:46 | -32.43907 | 152.72699 | 33040 ft | 494 kts | 105° |
| 2026-04-28 09:47 | -32.45554 | 152.80490 | 33170 ft | 482 kts | 111° |
| 2026-04-28 09:47 | -32.48024 | 152.87826 | 33076 ft | 481 kts | 120° |
| 2026-04-28 09:48 | -32.49706 | 152.91251 | 32866 ft | 483 kts | 126° |
| 2026-04-28 09:48 | -32.51739 | 152.94423 | 32683 ft | 484 kts | 133° |
| 2026-04-28 09:48 | -32.56482 | 153.00009 | 32526 ft | 484 kts | 140° |
| 2026-04-28 09:49 | -32.59305 | 153.02033 | 32632 ft | 474 kts | 165° |
| 2026-04-28 09:49 | -32.62510 | 153.01938 | 33171 ft | 462 kts | 196° |
| 2026-04-28 09:49 | -32.68584 | 152.99206 | 32867 ft | 474 kts | 201° |
| 2026-04-28 09:50 | -32.71664 | 152.97734 | 32668 ft | 480 kts | 202° |
| 2026-04-28 09:50 | -32.74740 | 152.96184 | 32644 ft | 482 kts | 203° |
| 2026-04-28 09:50 | -32.77801 | 152.94538 | 32777 ft | 482 kts | 204° |
| 2026-04-28 09:50 | -32.80830 | 152.92819 | 32842 ft | 483 kts | 205° |
| 2026-04-28 09:51 | -32.86698 | 152.88867 | 32870 ft | 487 kts | 212° |
| 2026-04-28 09:51 | -32.89308 | 152.86277 | 32883 ft | 492 kts | 223° |
| 2026-04-28 09:51 | -32.91446 | 152.83074 | 32909 ft | 498 kts | 235° |
| 2026-04-28 09:52 | -32.92944 | 152.79319 | 32836 ft | 508 kts | 248° |
| 2026-04-28 09:52 | -32.93626 | 152.75152 | 32595 ft | 521 kts | 263° |
| 2026-04-28 09:52 | -32.93323 | 152.70805 | 32217 ft | 537 kts | 280° |
| 2026-04-28 09:52 | -32.91926 | 152.66690 | 31851 ft | 551 kts | 299° |
| 2026-04-28 09:53 | -32.89415 | 152.63227 | 31636 ft | 559 kts | 319° |
| 2026-04-28 09:53 | -32.86036 | 152.60977 | 31577 ft | 560 kts | 341° |
| 2026-04-28 09:53 | -32.82205 | 152.60273 | 31565 ft | 557 kts | 2° |
| 2026-04-28 09:53 | -32.78433 | 152.61165 | 31605 ft | 551 kts | 20° |
| 2026-04-28 09:54 | -32.71141 | 152.63977 | 31594 ft | 551 kts | 21° |
| 2026-04-28 09:54 | -32.63942 | 152.67106 | 31578 ft | 550 kts | 24° |
| 2026-04-28 09:55 | -32.56834 | 152.70460 | 31642 ft | 548 kts | 25° |
| 2026-04-28 09:55 | -32.49856 | 152.74105 | 31643 ft | 547 kts | 27° |
| 2026-04-28 09:56 | -32.42910 | 152.77750 | 31714 ft | 546 kts | 24° |
| 2026-04-28 09:56 | -32.35966 | 152.80483 | 31695 ft | 547 kts | 16° |
| 2026-04-28 09:57 | -32.28373 | 152.81664 | 31488 ft | 549 kts | 1° |
| 2026-04-28 09:57 | -32.24598 | 152.81327 | 31317 ft | 550 kts | 352° |
| 2026-04-28 09:57 | -32.20899 | 152.80239 | 31102 ft | 550 kts | 341° |
| 2026-04-28 09:58 | -32.17434 | 152.78327 | 30874 ft | 549 kts | 329° |
| 2026-04-28 09:58 | -32.14413 | 152.75609 | 30662 ft | 547 kts | 317° |
| 2026-04-28 09:58 | -32.12014 | 152.72159 | 30472 ft | 544 kts | 303° |
| 2026-04-28 09:58 | -32.10423 | 152.68139 | 30214 ft | 541 kts | 288° |
| 2026-04-28 09:59 | -32.09792 | 152.63771 | 29900 ft | 539 kts | 272° |
| 2026-04-28 09:59 | -32.10227 | 152.59408 | 29542 ft | 537 kts | 255° |
| 2026-04-28 09:59 | -32.11745 | 152.55408 | 29180 ft | 535 kts | 237° |
| 2026-04-28 09:59 | -32.14245 | 152.52189 | 28838 ft | 533 kts | 219° |
| 2026-04-28 10:00 | -32.17487 | 152.50132 | 28509 ft | 531 kts | 199° |
| 2026-04-28 10:00 | -32.21128 | 152.49520 | 28175 ft | 531 kts | 179° |
| 2026-04-28 10:00 | -32.24699 | 152.50495 | 27828 ft | 532 kts | 158° |
| 2026-04-28 10:00 | -32.27686 | 152.52962 | 27451 ft | 535 kts | 136° |
| 2026-04-28 10:01 | -32.29670 | 152.56723 | 27014 ft | 540 kts | 112° |
| 2026-04-28 10:01 | -32.30164 | 152.61118 | 26538 ft | 545 kts | 87° |
| 2026-04-28 10:01 | -32.29046 | 152.65314 | 26109 ft | 549 kts | 62° |
| 2026-04-28 10:01 | -32.26450 | 152.68592 | 25780 ft | 551 kts | 36° |
| 2026-04-28 10:02 | -32.22896 | 152.70190 | 25561 ft | 549 kts | 9° |
| 2026-04-28 10:02 | -32.19119 | 152.69759 | 25345 ft | 547 kts | 342° |
| 2026-04-28 10:02 | -32.15941 | 152.67396 | 25063 ft | 544 kts | 315° |
| 2026-04-28 10:02 | -32.14014 | 152.63619 | 24847 ft | 539 kts | 288° |
| 2026-04-28 10:03 | -32.13721 | 152.59280 | 24789 ft | 531 kts | 262° |
| 2026-04-28 10:03 | -32.15098 | 152.55311 | 24720 ft | 525 kts | 235° |
| 2026-04-28 10:03 | -32.17860 | 152.52553 | 24455 ft | 525 kts | 207° |
| 2026-04-28 10:03 | -32.21403 | 152.51672 | 24040 ft | 528 kts | 179° |
| 2026-04-28 10:04 | -32.24881 | 152.52972 | 23517 ft | 532 kts | 149° |
| 2026-04-28 10:04 | -32.27301 | 152.56143 | 23150 ft | 533 kts | 118° |
| 2026-04-28 10:04 | -32.28008 | 152.60385 | 23002 ft | 532 kts | 88° |
| 2026-04-28 10:04 | -32.26741 | 152.64438 | 22849 ft | 533 kts | 56° |
| 2026-04-28 10:05 | -32.23805 | 152.67060 | 22236 ft | 541 kts | 22° |
| 2026-04-28 10:05 | -32.20060 | 152.67241 | 21207 ft | 553 kts | 346° |
| 2026-04-28 10:05 | -32.16922 | 152.64727 | 20559 ft | 554 kts | 308° |
| 2026-04-28 10:05 | -32.15721 | 152.60553 | 20633 ft | 538 kts | 271° |
| 2026-04-28 10:06 | -32.16829 | 152.56478 | 20951 ft | 521 kts | 235° |
| 2026-04-28 10:06 | -32.19653 | 152.53968 | 21102 ft | 514 kts | 200° |
| 2026-04-28 10:06 | -32.23171 | 152.53824 | 20827 ft | 517 kts | 166° |
| 2026-04-28 10:06 | -32.26125 | 152.56178 | 20316 ft | 524 kts | 129° |
| 2026-04-28 10:07 | -32.27273 | 152.60214 | 19934 ft | 529 kts | 92° |
| 2026-04-28 10:07 | -32.26100 | 152.64264 | 19962 ft | 523 kts | 59° |
| 2026-04-28 10:07 | -32.25577 | 152.68411 | 20940 ft | 555 kts | 110° |
| 2026-04-28 10:07 | -32.28500 | 152.71127 | 21313 ft | 565 kts | 166° |
| 2026-04-28 10:08 | -32.32387 | 152.72217 | 21438 ft | 585 kts | 167° |
| 2026-04-28 10:08 | -32.36236 | 152.73964 | 21385 ft | 599 kts | 152° |
| 2026-04-28 10:08 | -32.39660 | 152.76839 | 21272 ft | 606 kts | 143° |
| 2026-04-28 10:08 | -32.42900 | 152.79865 | 21663 ft | 576 kts | 142° |
| 2026-04-28 10:09 | -32.46003 | 152.82748 | 21606 ft | 560 kts | 143° |
| 2026-04-28 10:09 | -32.49066 | 152.85500 | 21899 ft | 546 kts | 144° |
| 2026-04-28 10:09 | -32.52091 | 152.88118 | 21886 ft | 544 kts | 145° |
| 2026-04-28 10:09 | -32.55174 | 152.90698 | 21907 ft | 541 kts | 146° |
| 2026-04-28 10:10 | -32.58268 | 152.93210 | 21979 ft | 538 kts | 147° |
| 2026-04-28 10:10 | -32.61402 | 152.95635 | 21971 ft | 538 kts | 148° |
| 2026-04-28 10:10 | -32.64603 | 152.97958 | 21868 ft | 539 kts | 150° |
| 2026-04-28 10:10 | -32.67837 | 153.00216 | 21779 ft | 540 kts | 150° |
| 2026-04-28 10:11 | -32.71063 | 153.02509 | 21779 ft | 539 kts | 149° |
| 2026-04-28 10:11 | -32.74199 | 153.04936 | 21775 ft | 539 kts | 146° |
| 2026-04-28 10:11 | -32.77200 | 153.07615 | 21702 ft | 539 kts | 142° |
| 2026-04-28 10:11 | -32.80240 | 153.10373 | 18614 ft | 576 kts | 145° |
| 2026-04-28 10:12 | -32.83671 | 153.12566 | 16393 ft | 535 kts | 165° |
| 2026-04-28 10:12 | -32.87159 | 153.12311 | 13650 ft | 489 kts | 200° |
| 2026-04-28 10:12 | -32.88438 | 153.09155 | 8784 ft | 453 kts | 279° |
| 2026-04-28 10:12 | -32.87311 | 153.05982 | 6933 ft | 403 kts | 303° |
| 2026-04-28 10:13 | -32.85858 | 153.03230 | 5218 ft | 388 kts | 302° |
| 2026-04-28 10:13 | -32.84619 | 153.00409 | 4073 ft | 374 kts | 298° |
| 2026-04-28 10:13 | -32.83528 | 152.97674 | 3549 ft | 363 kts | 297° |
| 2026-04-28 10:13 | -32.82516 | 152.94930 | 3140 ft | 354 kts | 296° |
| 2026-04-28 10:14 | -32.81488 | 152.92460 | 2943 ft | 304 kts | 302° |
| 2026-04-28 10:14 | -32.80251 | 152.90462 | 3206 ft | 297 kts | 311° |
| 2026-04-28 10:14 | -32.78973 | 152.88550 | 4052 ft | 300 kts | 311° |
| 2026-04-28 10:14 | -32.77812 | 152.86393 | 4902 ft | 326 kts | 295° |
| 2026-04-28 10:15 | -32.77297 | 152.83677 | 5509 ft | 356 kts | 281° |
| 2026-04-28 10:15 | -32.76806 | 152.80728 | 6261 ft | 372 kts | 283° |
| 2026-04-28 10:15 | -32.76255 | 152.77658 | 6856 ft | 386 kts | 283° |
| 2026-04-28 10:15 | -32.75946 | 152.74457 | 7509 ft | 395 kts | 260° |
| 2026-04-28 10:16 | -32.77649 | 152.72046 | 8075 ft | 401 kts | 207° |
| 2026-04-28 10:16 | -32.80396 | 152.70282 | 9285 ft | 526 kts | 211° |
| 2026-04-28 10:16 | -32.83322 | 152.67008 | 11074 ft | 592 kts | 240° |
| 2026-04-28 10:16 | -32.84435 | 152.62582 | 10980 ft | 534 kts | 260° |
| 2026-04-28 10:17 | -32.84895 | 152.58332 | 10607 ft | 507 kts | 262° |
| 2026-04-28 10:17 | -32.85760 | 152.54354 | 9363 ft | 503 kts | 249° |
| 2026-04-28 10:17 | -32.87139 | 152.50531 | 8068 ft | 503 kts | 246° |
| 2026-04-28 10:17 | -32.88769 | 152.46914 | 7832 ft | 488 kts | 238° |
| 2026-04-28 10:18 | -32.90456 | 152.43420 | 11954 ft | 502 kts | 241° |
| 2026-04-28 10:18 | -32.92108 | 152.39622 | 12124 ft | 530 kts | 239° |
| 2026-04-28 10:18 | -32.94456 | 152.36188 | 12392 ft | 541 kts | 225° |
| 2026-04-28 10:18 | -32.97141 | 152.32961 | 12337 ft | 555 kts | 225° |
| 2026-04-28 10:19 | -32.99890 | 152.29673 | 12133 ft | 564 kts | 225° |
| 2026-04-28 10:19 | -33.02633 | 152.26329 | 12288 ft | 565 kts | 225° |
| 2026-04-28 10:19 | -33.05324 | 152.22954 | 12243 ft | 557 kts | 226° |
| 2026-04-28 10:19 | -33.07894 | 152.19593 | 12010 ft | 553 kts | 228° |
| 2026-04-28 10:20 | -33.10007 | 152.15845 | 11716 ft | 552 kts | 259° |
| 2026-04-28 10:20 | -33.08740 | 152.11711 | 13048 ft | 522 kts | 304° |
| 2026-04-28 10:20 | -33.06547 | 152.08291 | 13200 ft | 536 kts | 310° |
| 2026-04-28 10:20 | -33.03672 | 152.05252 | 12225 ft | 557 kts | 328° |
| 2026-04-28 10:21 | -33.00444 | 152.02812 | 12161 ft | 556 kts | 328° |
| 2026-04-28 10:21 | -32.97119 | 152.00389 | 11658 ft | 562 kts | 329° |
| 2026-04-28 10:21 | -32.93736 | 151.98032 | 11256 ft | 564 kts | 331° |
| 2026-04-28 10:21 | -32.90428 | 151.95605 | 10953 ft | 551 kts | 324° |
| 2026-04-28 10:22 | -32.87580 | 151.92654 | 10651 ft | 535 kts | 316° |
| 2026-04-28 10:22 | -32.85050 | 151.89574 | 10491 ft | 507 kts | 314° |
| 2026-04-28 10:22 | -32.82677 | 151.86592 | 10019 ft | 484 kts | 314° |
| 2026-04-28 10:22 | -32.80368 | 151.83715 | 7274 ft | 488 kts | 316° |
| 2026-04-28 10:23 | -32.77695 | 151.83376 | 7416 ft | 355 kts | 23° |
| 2026-04-28 10:23 | -32.75621 | 151.84359 | 7776 ft | 292 kts | 24° |
| 2026-04-28 10:23 | -32.74445 | 151.84928 | 8188 ft | 260 kts | 25° |
| 2026-04-28 10:23 | -32.72249 | 151.86125 | 8897 ft | 292 kts | 27° |
| 2026-04-28 10:24 | -32.70019 | 151.87299 | 9499 ft | 429 kts | 26° |
| 2026-04-28 10:24 | -32.68088 | 151.88218 | 9450 ft | 449 kts | 22° |
| 2026-04-28 10:24 | -32.64023 | 151.89535 | 9385 ft | 465 kts | 9° |
| 2026-04-28 10:24 | -32.60788 | 151.89517 | 9676 ft | 466 kts | 355° |
| 2026-04-28 10:25 | -32.58660 | 151.89046 | 9585 ft | 455 kts | 347° |
| 2026-04-28 10:25 | -32.55685 | 151.88111 | 9347 ft | 443 kts | 344° |
| 2026-04-28 10:25 | -32.53237 | 151.86048 | 8974 ft | 442 kts | 302° |
| 2026-04-28 10:25 | -32.52839 | 151.82491 | 8338 ft | 441 kts | 258° |
| 2026-04-28 10:26 | -32.53990 | 151.79447 | 7497 ft | 447 kts | 239° |
| 2026-04-28 10:26 | -32.55825 | 151.76486 | 6922 ft | 445 kts | 230° |
| 2026-04-28 10:26 | -32.57483 | 151.73457 | 7031 ft | 430 kts | 246° |
| 2026-04-28 10:26 | -32.58706 | 151.70245 | 6959 ft | 430 kts | 245° |
| 2026-04-28 10:27 | -32.60308 | 151.67250 | 6440 ft | 435 kts | 226° |
| 2026-04-28 10:27 | -32.63011 | 151.65702 | 5234 ft | 445 kts | 188° |
| 2026-04-28 10:27 | -32.66058 | 151.66196 | 4298 ft | 445 kts | 158° |
| 2026-04-28 10:27 | -32.68476 | 151.68350 | 3911 ft | 433 kts | 134° |
| 2026-04-28 10:28 | -32.70463 | 151.71055 | 3170 ft | 436 kts | 130° |
| 2026-04-28 10:28 | -32.72475 | 151.73770 | 2454 ft | 442 kts | 131° |
| 2026-04-28 10:28 | -32.74474 | 151.76542 | 1938 ft | 441 kts | 130° |
| 2026-04-28 10:29 | -32.78423 | 151.82067 | 1575 ft | 436 kts | 130° |
| 2026-04-28 10:29 | -32.80711 | 151.83661 | 2091 ft | 347 kts | 195° |
| 2026-04-28 10:29 | -32.81327 | 151.81743 | 2014 ft | 260 kts | 309° |
| 2026-04-28 10:29 | -32.80233 | 151.80284 | 1826 ft | 212 kts | 315° |
| 2026-04-28 10:30 | -32.79307 | 151.79195 | 1550 ft | 162 kts | 329° |
| 2026-04-28 10:30 | -32.78366 | 151.79114 | 1306 ft | 129 kts | 29° |
| 2026-04-28 10:30 | -32.77821 | 151.79883 | 879 ft | 120 kts | 75° |
| 2026-04-28 10:30 | -32.77839 | 151.80825 | 555 ft | 111 kts | 107° |
| 2026-04-28 10:31 | -32.78256 | 151.81612 | 258 ft | 115 kts | 129° |
| 2026-04-28 10:31 | -32.78756 | 151.82322 | 59 ft | 108 kts | 130° |
| 2026-04-28 10:31 | -32.79237 | 151.82996 | 31 ft | 101 kts | 131° |
| 2026-04-28 10:31 | -32.79604 | 151.83500 | 27 ft | 65 kts | 130° |
| 2026-04-28 10:32 | -32.79793 | 151.83762 | 30 ft | 25 kts | 131° |
| 2026-04-28 10:32 | -32.79829 | 151.83914 | 31 ft | 21 kts | 58° |
| 2026-04-28 10:32 | -32.79742 | 151.83985 | 31 ft | 13 kts | 326° |
| 2026-04-28 10:32 | -32.79679 | 151.83894 | 30 ft | 15 kts | 308° |
| 2026-04-28 10:33 | -32.79608 | 151.83795 | 30 ft | 17 kts | 313° |
| 2026-04-28 10:33 | -32.79525 | 151.83682 | 27 ft | 19 kts | 310° |
| 2026-04-28 10:33 | -32.79437 | 151.83560 | 28 ft | 19 kts | 311° |
| 2026-04-28 10:33 | -32.79374 | 151.83470 | 28 ft | 8 kts | 315° |
| 2026-04-28 10:34 | -32.79325 | 151.83498 | 29 ft | 8 kts | 40° |
| 2026-04-28 10:34 | -32.79284 | 151.83541 | 30 ft | 7 kts | 40° |
| 2026-04-28 10:34 | -32.79245 | 151.83580 | 31 ft | 7 kts | 41° |
| 2026-04-28 10:34 | -32.79193 | 151.83633 | 31 ft | 13 kts | 39° |
| 2026-04-28 10:35 | -32.79121 | 151.83703 | 31 ft | 14 kts | 40° |
| 2026-04-28 10:35 | -32.79072 | 151.83727 | 30 ft | 7 kts | 338° |
| 2026-04-28 10:35 | -32.79026 | 151.83696 | 30 ft | 8 kts | 353° |
| 2026-04-28 10:35 | -32.78990 | 151.83742 | 30 ft | 8 kts | 104° |
| 2026-04-28 10:36 | -32.79039 | 151.83786 | 30 ft | 9 kts | 142° |
| 2026-04-28 10:36 | -32.79086 | 151.83797 | 30 ft | 8 kts | 233° |
| 2026-04-28 10:36 | -32.79095 | 151.83782 | 30 ft | 0 kts | 233° |